Time;durP1;ratioP1;P1;durP2;ratioP2;P2;SDS_P1;SDS_P2;PMS_P1;PMS_P2;Temp;Humidity;BMP_temperature;BMP_pressure;BME280_temperature;BME280_humidity;BME280_pressure;Samples;Min_cycle;Max_cycle;Signal;HPM_P1;HPM_P2
2023/04/15 00:00:32;;;;;;;11.55;6.90;;;9.40;99.90;;;;;;5059437;28;20182;-92
2023/04/15 00:02:59;;;;;;;10.10;5.43;;;9.20;99.90;;;;;;5073329;28;20241;-92
2023/04/15 00:05:25;;;;;;;17.15;6.38;;;9.40;99.90;;;;;;5072982;28;20176;-94
2023/04/15 00:07:51;;;;;;;21.10;8.68;;;;;;;;;;5059755;28;20294;-93
2023/04/15 00:10:16;;;;;;;14.07;7.23;;;9.10;99.90;;;;;;5074953;28;20183;-93
2023/04/15 00:12:42;;;;;;;15.48;8.32;;;9.50;99.90;;;;;;5075929;28;20720;-91
2023/04/15 00:15:09;;;;;;;16.52;8.10;;;7.90;99.90;;;;;;5078217;28;20179;-92
2023/04/15 00:17:38;;;;;;;16.35;9.18;;;9.00;99.90;;;;;;5094207;28;20168;-92
2023/04/15 00:20:05;;;;;;;14.50;8.20;;;9.10;99.90;;;;;;5078227;28;20164;-91
2023/04/15 00:22:31;;;;;;;22.03;8.93;;;9.20;99.90;;;;;;5057994;28;20183;-93
2023/04/15 00:24:57;;;;;;;17.33;7.95;;;9.40;99.90;;;;;;5070484;28;20176;-93
2023/04/15 00:27:23;;;;;;;12.32;7.10;;;;;;;;;;5053194;28;20219;-94
2023/04/15 00:29:49;;;;;;;18.27;9.07;;;9.00;99.90;;;;;;5069694;28;20187;-92
2023/04/15 00:32:15;;;;;;;20.77;9.23;;;;;;;;;;5053733;28;20206;-93
2023/04/15 00:34:41;;;;;;;16.20;8.98;;;9.00;99.90;;;;;;5070201;28;20645;-94
2023/04/15 00:37:09;;;;;;;18.07;9.00;;;9.00;99.90;;;;;;5070108;28;20180;-93
2023/04/15 00:39:34;;;;;;;18.60;8.25;;;8.90;99.90;;;;;;5055193;28;20175;-93
2023/04/15 00:42:06;;;;;;;22.58;8.75;;;9.00;99.90;;;;;;5072697;28;20327;-92
2023/04/15 00:44:34;;;;;;;18.92;8.05;;;9.20;99.90;;;;;;5075452;28;20207;-93
2023/04/15 00:47:01;;;;;;;15.88;8.75;;;9.10;99.90;;;;;;5061753;28;20176;-91
2023/04/15 00:49:28;;;;;;;17.97;9.33;;;8.90;99.90;;;;;;5064810;28;20176;-93
2023/04/15 00:51:54;;;;;;;14.30;7.20;;;9.10;99.90;;;;;;5092173;28;20198;-91
2023/04/15 00:54:21;;;;;;;15.50;8.32;;;8.90;99.90;;;;;;5078760;28;20630;-93
2023/04/15 00:56:47;;;;;;;17.52;8.02;;;9.10;99.90;;;;;;5060625;28;20183;-93
2023/04/15 00:59:17;;;;;;;15.45;8.13;;;8.80;99.90;;;;;;5077375;28;20198;-93
2023/04/15 01:01:44;;;;;;;18.43;7.90;;;8.90;99.90;;;;;;5077361;28;20183;-94
2023/04/15 01:04:11;;;;;;;15.60;6.37;;;9.10;99.90;;;;;;5060526;28;20198;-92
2023/04/15 01:06:37;;;;;;;12.27;6.45;;;8.90;99.90;;;;;;5078422;28;20175;-94
2023/04/15 01:09:13;;;;;;;17.02;7.75;;;8.90;99.90;;;;;;5081388;28;20215;-94
2023/04/15 01:11:38;;;;;;;11.83;7.20;;;8.90;99.90;;;;;;5066069;28;20185;-93
2023/04/15 01:14:04;;;;;;;14.82;7.32;;;8.90;99.90;;;;;;5078500;28;20700;-94
2023/04/15 01:16:30;;;;;;;14.85;7.38;;;7.10;99.90;;;;;;5077131;28;20171;-93
2023/04/15 01:18:56;;;;;;;17.85;6.50;;;9.10;99.90;;;;;;5077899;28;20175;-92
2023/04/15 01:21:25;;;;;;;17.47;7.27;;;9.30;99.90;;;;;;5082088;28;20175;-92
2023/04/15 01:23:54;;;;;;;17.53;7.53;;;9.10;99.90;;;;;;5065078;28;20175;-93
2023/04/15 01:26:21;;;;;;;19.27;7.40;;;8.80;99.90;;;;;;5081694;28;20189;-93
2023/04/15 01:28:46;;;;;;;13.13;6.63;;;6.70;99.90;;;;;;5083503;28;20203;-92
2023/04/15 01:31:13;;;;;;;13.53;7.07;;;8.80;99.90;;;;;;5081116;28;20636;-92
2023/04/15 01:33:42;;;;;;;13.23;7.18;;;9.00;99.90;;;;;;5080516;28;20183;-93
2023/04/15 01:36:09;;;;;;;11.37;6.07;;;8.80;99.90;;;;;;5084057;28;20167;-93
2023/04/15 01:38:36;;;;;;;15.97;8.53;;;9.40;99.90;;;;;;5083098;28;20632;-93
2023/04/15 01:41:06;;;;;;;13.30;5.78;;;9.00;99.90;;;;;;5083377;28;20179;-94
2023/04/15 01:43:33;;;;;;;15.05;6.70;;;8.80;99.90;;;;;;5065378;28;20253;-94
2023/04/15 01:45:59;;;;;;;10.63;6.53;;;8.80;99.90;;;;;;5081739;28;20186;-94
2023/04/15 01:48:26;;;;;;;13.10;7.50;;;9.20;99.90;;;;;;5066806;28;20210;-93
2023/04/15 01:50:53;;;;;;;14.23;7.00;;;8.80;99.90;;;;;;5065257;28;20192;-94
2023/04/15 01:53:19;;;;;;;14.40;6.47;;;9.00;99.90;;;;;;5082052;28;20602;-92
2023/04/15 01:55:45;;;;;;;11.17;5.97;;;8.80;99.90;;;;;;5066087;28;20171;-93
2023/04/15 01:58:11;;;;;;;13.97;6.63;;;8.80;99.90;;;;;;5054057;28;20191;-93
2023/04/15 02:00:37;;;;;;;16.10;6.72;;;8.90;99.90;;;;;;5090662;28;20179;-93
2023/04/15 02:03:05;;;;;;;13.30;7.10;;;8.80;99.90;;;;;;5084581;28;20682;-92
2023/04/15 02:05:33;;;;;;;14.63;7.25;;;8.80;99.90;;;;;;5080325;28;20194;-92
2023/04/15 02:07:59;;;;;;;11.88;6.32;;;9.40;99.90;;;;;;5077911;28;20639;-93
2023/04/15 02:10:25;;;;;;;16.33;6.57;;;8.90;99.90;;;;;;5078076;28;20175;-93
2023/04/15 02:12:53;;;;;;;17.38;9.13;;;8.80;99.90;;;;;;5076277;28;20203;-94
2023/04/15 02:15:19;;;;;;;10.25;5.72;;;8.50;99.90;;;;;;5077514;28;20232;-94
2023/04/15 02:17:49;;;;;;;12.10;6.95;;;8.90;99.90;;;;;;5076278;28;20216;-93
2023/04/15 02:20:16;;;;;;;11.40;6.35;;;7.50;99.90;;;;;;5076468;28;20269;-94
2023/04/15 02:22:42;;;;;;;11.48;6.55;;;6.20;99.90;;;;;;5076077;28;20179;-94
2023/04/15 02:25:09;;;;;;;10.35;5.88;;;8.80;99.90;;;;;;5059729;28;20591;-94
2023/04/15 02:27:35;;;;;;;12.68;7.05;;;9.40;99.90;;;;;;5075745;28;20207;-93
2023/04/15 02:30:01;;;;;;;12.57;6.30;;;8.80;99.90;;;;;;5058806;28;20179;-93
2023/04/15 02:32:27;;;;;;;12.05;6.38;;;;;;;;;;5075920;28;20636;-93
2023/04/15 02:34:54;;;;;;;11.77;6.87;;;8.80;99.90;;;;;;5076805;28;20179;-93
2023/04/15 02:37:19;;;;;;;11.93;5.97;;;9.40;99.90;;;;;;5075303;28;20286;-94
2023/04/15 02:39:46;;;;;;;14.48;6.32;;;7.70;99.90;;;;;;5058836;28;20226;-93
2023/04/15 02:42:12;;;;;;;9.25;5.40;;;8.80;99.90;;;;;;5075514;28;20260;-94
2023/04/15 02:44:38;;;;;;;10.07;5.23;;;9.40;99.90;;;;;;5075202;28;20176;-94
2023/04/15 02:47:05;;;;;;;11.40;5.00;;;9.00;99.90;;;;;;5075739;28;20181;-94
2023/04/15 02:49:31;;;;;;;10.97;6.13;;;8.90;99.90;;;;;;5077114;28;20171;-94
2023/04/15 02:51:58;;;;;;;9.85;5.38;;;;;;;;;;5075184;28;20176;-94
2023/04/15 02:54:27;;;;;;;10.45;6.07;;;8.80;99.90;;;;;;5058556;28;20188;-94
2023/04/15 02:56:55;;;;;;;9.27;5.55;;;8.80;99.90;;;;;;5074859;28;20269;-91
2023/04/15 02:59:23;;;;;;;8.70;4.75;;;8.80;99.90;;;;;;5074457;28;20187;-93
2023/04/15 03:05:14;;;;;;;11.40;5.67;;;8.80;99.90;;;;;;5075972;28;20165;-94
2023/04/15 03:07:49;;;;;;;10.80;6.40;;;;;;;;;;5058593;28;20221;-95
2023/04/15 03:10:15;;;;;;;9.10;5.73;;;8.90;99.90;;;;;;5075173;28;20265;-93
2023/04/15 03:12:41;;;;;;;6.87;4.83;;;;;;;;;;5073873;28;20206;-94
2023/04/15 03:15:08;;;;;;;9.45;5.35;;;8.90;99.90;;;;;;5074671;28;20190;-92
2023/04/15 03:17:33;;;;;;;11.85;4.68;;;8.80;99.90;;;;;;5041085;28;20285;-93
2023/04/15 03:20:04;;;;;;;11.45;5.63;;;6.70;99.90;;;;;;5077055;28;20210;-94
2023/04/15 03:22:33;;;;;;;11.40;5.30;;;9.00;99.90;;;;;;5076190;28;20190;-94
2023/04/15 03:24:59;;;;;;;8.47;4.80;;;9.10;99.90;;;;;;5082501;28;20274;-95
2023/04/15 03:27:27;;;;;;;8.68;5.22;;;9.40;99.90;;;;;;5041703;28;20586;-95
2023/04/15 03:29:53;;;;;;;8.50;5.15;;;9.00;99.90;;;;;;5075100;28;20187;-94
2023/04/15 03:32:19;;;;;;;8.70;4.50;;;;;;;;;;5058269;28;20183;-93
2023/04/15 03:34:45;;;;;;;9.35;5.80;;;8.80;99.90;;;;;;5057509;28;20175;-95
2023/04/15 03:37:10;;;;;;;12.27;5.78;;;9.30;99.90;;;;;;5041854;28;20525;-93
2023/04/15 03:39:38;;;;;;;9.02;4.20;;;8.80;99.90;;;;;;5057696;28;20175;-95
2023/04/15 03:42:04;;;;;;;8.90;4.93;;;8.80;99.90;;;;;;5057709;28;20199;-94
2023/04/15 03:44:31;;;;;;;9.47;5.90;;;;;;;;;;5056647;28;20622;-93
2023/04/15 03:46:57;;;;;;;8.00;4.95;;;8.80;99.90;;;;;;5075830;28;20186;-95
2023/04/15 03:49:23;;;;;;;8.40;5.18;;;8.80;99.90;;;;;;5079331;28;20194;-93
2023/04/15 03:51:49;;;;;;;8.83;4.83;;;8.70;99.90;;;;;;5067334;28;20188;-94
2023/04/15 03:54:15;;;;;;;8.18;5.53;;;8.80;99.90;;;;;;5087007;28;20167;-93
2023/04/15 03:56:41;;;;;;;9.03;4.67;;;;;;;;;;5063686;28;20182;-93
2023/04/15 03:59:06;;;;;;;6.70;4.60;;;8.80;99.90;;;;;;5081305;28;20175;-93
2023/04/15 04:01:32;;;;;;;9.15;4.70;;;8.80;99.90;;;;;;5072773;28;20186;-94
2023/04/15 04:03:58;;;;;;;9.95;4.97;;;8.80;99.90;;;;;;5073245;28;20182;-92
2023/04/15 04:06:25;;;;;;;10.90;4.85;;;;;;;;;;5098576;28;20174;-94
2023/04/15 04:08:50;;;;;;;6.60;4.25;;;8.80;99.90;;;;;;5081327;28;20226;-92
2023/04/15 04:11:16;;;;;;;7.53;4.85;;;9.70;99.90;;;;;;5076635;28;20183;-91
2023/04/15 04:13:42;;;;;;;8.13;3.85;;;;;;;;;;5069540;28;20174;-93
2023/04/15 04:16:08;;;;;;;7.80;4.10;;;8.90;99.90;;;;;;5079103;28;20188;-92
2023/04/15 04:18:34;;;;;;;8.27;4.63;;;9.50;99.90;;;;;;5076104;28;20199;-93
2023/04/15 04:21:00;;;;;;;8.50;4.78;;;9.70;99.90;;;;;;5063682;28;20638;-93
2023/04/15 04:23:26;;;;;;;6.53;3.83;;;9.00;99.90;;;;;;5077165;28;20167;-92
2023/04/15 04:25:52;;;;;;;11.38;4.82;;;;;;;;;;5074135;28;20239;-92
2023/04/15 04:28:24;;;;;;;6.17;4.60;;;8.90;99.90;;;;;;5095925;28;20237;-93
2023/04/15 04:30:51;;;;;;;5.87;3.80;;;9.00;99.90;;;;;;5041555;28;20191;-93
2023/04/15 04:33:18;;;;;;;7.88;4.30;;;9.00;99.90;;;;;;5042419;28;20191;-93
2023/04/15 04:35:43;;;;;;;9.80;4.32;;;9.70;99.90;;;;;;5084518;28;20189;-93
2023/04/15 04:38:10;;;;;;;13.98;4.95;;;;;;;;;;5078803;28;20175;-91
2023/04/15 04:40:43;;;;;;;11.60;4.43;;;8.90;99.90;;;;;;5079929;28;20175;-93
2023/04/15 04:43:09;;;;;;;9.45;5.38;;;8.90;99.90;;;;;;5088254;28;20223;-94
2023/04/15 04:45:35;;;;;;;7.75;4.88;;;9.10;99.90;;;;;;5063628;28;20651;-92
2023/04/15 04:48:05;;;;;;;7.63;4.77;;;9.10;99.90;;;;;;5047792;28;20241;-96
2023/04/15 04:50:34;;;;;;;7.70;5.20;;;7.20;99.90;;;;;;5081341;28;20178;-93
2023/04/15 04:53:04;;;;;;;8.60;5.37;;;9.00;99.90;;;;;;5044632;28;20235;-90
2023/04/15 04:55:36;;;;;;;8.85;4.15;;;8.90;99.90;;;;;;5061612;28;20176;-91
2023/04/15 04:58:02;;;;;;;10.65;5.22;;;8.00;99.90;;;;;;5058819;28;20214;-90
2023/04/15 05:00:28;;;;;;;9.15;5.35;;;8.90;99.90;;;;;;5059616;28;20183;-94
2023/04/15 05:03:03;;;;;;;9.90;4.93;;;8.90;99.90;;;;;;5039080;28;20252;-93
2023/04/15 05:05:30;;;;;;;12.00;5.93;;;;;;;;;;5059972;28;20433;-93
2023/04/15 05:08:03;;;;;;;8.20;4.57;;;8.90;99.90;;;;;;5081068;28;20219;-89
2023/04/15 05:10:49;;;;;;;10.13;4.78;;;7.70;99.90;;;;;;5061721;28;20233;-95
2023/04/15 05:13:15;;;;;;;7.57;4.65;;;9.00;99.90;;;;;;5079464;28;20184;-92
2023/04/15 05:15:45;;;;;;;7.75;3.85;;;9.20;99.90;;;;;;5078557;28;20208;-91
2023/04/15 05:18:12;;;;;;;8.75;4.55;;;9.40;99.90;;;;;;5083168;28;20171;-92
2023/04/15 05:20:39;;;;;;;12.30;5.07;;;9.00;99.90;;;;;;5068907;28;20176;-91
2023/04/15 05:23:15;;;;;;;;;;;;;;;;;;;;;
2023/04/15 05:25:44;;;;;;;5.38;3.80;;;9.20;99.90;;;;;;5082774;28;20269;-91
2023/04/15 05:28:16;;;;;;;7.45;4.55;;;7.90;99.90;;;;;;5082317;28;20245;-90
2023/04/15 05:30:50;;;;;;;5.57;4.10;;;9.40;99.90;;;;;;5078811;28;20195;-90
2023/04/15 05:33:23;;;;;;;9.32;4.53;;;9.20;99.90;;;;;;5053375;28;20352;-90
2023/04/15 05:35:49;;;;;;;5.87;4.30;;;8.00;99.90;;;;;;5085310;28;20209;-90
2023/04/15 05:38:36;;;;;;;8.93;4.85;;;9.00;99.90;;;;;;5068330;28;20193;-90
2023/04/15 05:41:02;;;;;;;4.93;4.05;;;8.80;99.90;;;;;;5098126;28;20163;-91
2023/04/15 05:43:39;;;;;;;7.82;4.20;;;9.50;99.90;;;;;;5091297;28;20184;-89
2023/04/15 05:46:21;;;;;;;6.10;4.13;;;9.00;99.90;;;;;;5108818;28;20208;-89
2023/04/15 05:48:47;;;;;;;12.43;4.00;;;9.00;99.90;;;;;;5080792;28;20273;-89
2023/04/15 05:51:12;;;;;;;6.63;4.57;;;9.00;99.90;;;;;;5071486;28;20250;-90
2023/04/15 05:53:51;;;;;;;9.90;5.20;;;9.00;99.90;;;;;;5056152;28;20216;-90
2023/04/15 05:56:16;;;;;;;6.57;4.53;;;9.10;99.90;;;;;;5083022;28;20183;-91
2023/04/15 05:58:43;;;;;;;6.63;4.50;;;9.70;99.90;;;;;;5075656;28;20187;-87
2023/04/15 06:01:12;;;;;;;8.15;4.38;;;9.00;99.90;;;;;;5092542;28;20665;-89
2023/04/15 06:03:38;;;;;;;5.95;4.60;;;9.50;99.90;;;;;;5085368;28;20203;-91
2023/04/15 06:06:06;;;;;;;10.33;5.00;;;9.20;99.90;;;;;;5084093;28;20175;-90
2023/04/15 06:08:32;;;;;;;7.75;4.55;;;9.20;99.90;;;;;;5086423;28;20199;-91
2023/04/15 06:10:58;;;;;;;7.53;4.60;;;9.00;99.90;;;;;;5087497;28;20229;-91
2023/04/15 06:13:33;;;;;;;8.55;5.63;;;7.70;99.90;;;;;;5083768;28;20171;-91
2023/04/15 06:16:03;;;;;;;8.60;5.35;;;9.50;99.90;;;;;;5067341;28;20179;-92
2023/04/15 06:18:29;;;;;;;9.20;4.90;;;9.10;99.90;;;;;;5086512;28;20179;-91
2023/04/15 06:20:55;;;;;;;9.00;5.10;;;9.10;99.90;;;;;;5086002;28;20175;-92
2023/04/15 06:23:21;;;;;;;7.45;4.97;;;9.10;99.90;;;;;;5081507;28;20207;-90
2023/04/15 06:25:46;;;;;;;7.45;4.13;;;9.10;99.90;;;;;;5064854;28;20275;-90
2023/04/15 06:28:15;;;;;;;7.18;4.35;;;9.10;99.90;;;;;;5065900;28;20211;-91
2023/04/15 06:30:41;;;;;;;8.85;4.85;;;9.20;99.90;;;;;;5061014;28;20172;-90
2023/04/15 06:33:09;;;;;;;8.25;5.03;;;9.20;99.90;;;;;;5061623;28;20172;-91
2023/04/15 06:35:35;;;;;;;7.03;4.50;;;9.40;99.90;;;;;;5058690;28;20180;-90
2023/04/15 06:38:14;;;;;;;9.83;5.30;;;8.80;99.90;;;;;;5060049;28;20183;-92
2023/04/15 06:40:52;;;;;;;8.80;4.97;;;9.20;99.90;;;;;;5053279;28;20180;-90
2023/04/15 06:43:17;;;;;;;8.57;4.95;;;9.30;99.90;;;;;;5057189;28;20176;-91
2023/04/15 06:45:52;;;;;;;9.68;5.60;;;9.20;99.90;;;;;;5059232;28;20305;-88
2023/04/15 06:48:18;;;;;;;7.13;4.68;;;9.20;99.90;;;;;;5055859;28;20294;-91
2023/04/15 06:50:44;;;;;;;6.68;4.40;;;9.50;99.90;;;;;;5058303;28;20230;-91
2023/04/15 06:53:13;;;;;;;6.57;4.28;;;9.30;99.90;;;;;;5073822;28;20623;-90
2023/04/15 06:55:44;;;;;;;8.05;4.63;;;9.30;99.90;;;;;;5058478;28;20180;-91
2023/04/15 06:58:10;;;;;;;11.38;4.90;;;9.10;99.90;;;;;;5057519;28;20191;-90
2023/04/15 07:00:39;;;;;;;9.35;4.43;;;9.70;99.90;;;;;;5058086;28;20168;-92
2023/04/15 07:03:09;;;;;;;9.10;5.43;;;9.70;99.90;;;;;;5058716;28;20226;-92
2023/04/15 07:05:40;;;;;;;13.88;5.25;;;10.10;99.90;;;;;;5058470;28;20183;-89
2023/04/15 07:08:07;;;;;;;10.55;5.22;;;10.20;99.90;;;;;;5059205;28;20270;-91
2023/04/15 07:10:36;;;;;;;6.90;4.28;;;9.50;99.90;;;;;;5058225;28;20171;-91
2023/04/15 07:13:04;;;;;;;8.82;5.13;;;9.50;99.90;;;;;;5042341;28;20184;-92
2023/04/15 07:15:30;;;;;;;20.73;6.80;;;9.70;99.90;;;;;;5058017;28;20239;-90
2023/04/15 07:17:55;;;;;;;18.77;6.53;;;9.80;99.90;;;;;;5055700;28;20207;-90
2023/04/15 07:20:22;;;;;;;12.30;5.03;;;9.50;99.90;;;;;;5055697;28;20184;-90
2023/04/15 07:22:47;;;;;;;11.10;4.38;;;9.90;99.90;;;;;;5057325;28;20178;-89
2023/04/15 07:25:16;;;;;;;6.32;3.47;;;9.40;99.90;;;;;;5057551;28;20245;-92
2023/04/15 07:27:42;;;;;;;10.93;4.97;;;9.50;99.90;;;;;;5057487;28;20257;-92
2023/04/15 07:30:09;;;;;;;15.30;6.75;;;9.50;99.90;;;;;;5058414;28;20180;-91
2023/04/15 07:32:35;;;;;;;12.70;5.95;;;7.70;99.90;;;;;;5058684;28;20183;-90
2023/04/15 07:35:07;;;;;;;10.80;4.68;;;9.90;99.90;;;;;;5057933;28;20614;-90
2023/04/15 07:37:33;;;;;;;13.18;6.25;;;9.90;99.90;;;;;;5057250;28;20176;-92
2023/04/15 07:39:59;;;;;;;11.55;6.75;;;;;;;;;;5056188;28;20184;-91
2023/04/15 07:42:28;;;;;;;8.80;5.13;;;9.70;99.90;;;;;;5057395;28;20530;-93
2023/04/15 07:44:54;;;;;;;7.95;3.28;;;9.90;99.90;;;;;;5057373;28;20179;-94
2023/04/15 07:47:22;;;;;;;6.47;3.90;;;9.70;99.90;;;;;;5057133;28;20213;-91
2023/04/15 07:49:50;;;;;;;5.80;3.55;;;10.10;99.90;;;;;;5041393;28;20588;-93
2023/04/15 07:52:18;;;;;;;7.15;3.35;;;9.80;99.90;;;;;;5059893;28;20176;-91
2023/04/15 07:54:44;;;;;;;3.50;2.33;;;8.50;99.90;;;;;;5060833;28;20206;-92
2023/04/15 07:57:10;;;;;;;4.05;3.00;;;10.10;99.90;;;;;;5059836;28;20209;-92
2023/04/15 07:59:51;;;;;;;5.32;2.78;;;9.80;99.90;;;;;;5060722;28;20613;-92
2023/04/15 08:02:25;;;;;;;5.68;2.97;;;9.90;99.90;;;;;;5044559;28;20626;-91
2023/04/15 08:04:54;;;;;;;4.90;3.05;;;10.10;99.90;;;;;;5061312;28;20175;-91
2023/04/15 08:10:17;;;;;;;7.85;3.90;;;10.00;99.90;;;;;;5059593;28;20292;-92
2023/04/15 08:12:53;;;;;;;;;;;;;;;;;;;;;
2023/04/15 08:15:24;;;;;;;6.07;3.28;;;10.00;99.90;;;;;;5079391;28;20257;-92
2023/04/15 08:20:37;;;;;;;8.10;4.03;;;10.00;99.90;;;;;;5166697;22;20242;-92
2023/04/15 08:23:03;;;;;;;4.88;2.92;;;10.00;99.90;;;;;;5059752;28;20210;-91
2023/04/15 08:25:34;;;;;;;3.70;2.42;;;10.00;99.90;;;;;;5060617;28;20206;-90
2023/04/15 08:28:04;;;;;;;5.05;2.75;;;10.20;99.90;;;;;;5058508;28;20213;-91
2023/04/15 08:30:33;;;;;;;6.75;3.25;;;10.70;99.90;;;;;;5058823;28;20247;-90
2023/04/15 08:33:02;;;;;;;9.95;2.90;;;10.00;99.90;;;;;;5059145;28;20271;-91
2023/04/15 08:35:28;;;;;;;6.03;3.13;;;9.10;99.90;;;;;;5057736;28;20179;-91
2023/04/15 08:37:54;;;;;;;6.22;3.50;;;10.30;99.90;;;;;;5057409;28;20283;-91
2023/04/15 08:40:21;;;;;;;3.83;2.97;;;10.10;99.90;;;;;;5056288;28;20625;-92
2023/04/15 08:42:51;;;;;;;8.10;2.40;;;10.50;99.90;;;;;;5074680;28;20171;-90
2023/04/15 08:45:17;;;;;;;4.80;2.67;;;10.10;99.90;;;;;;5056210;28;20175;-90
2023/04/15 08:47:48;;;;;;;4.50;2.65;;;10.70;99.90;;;;;;5068073;28;20230;-89
2023/04/15 08:50:15;;;;;;;3.65;2.42;;;10.60;99.90;;;;;;5087336;28;20148;-90
2023/04/15 08:52:41;;;;;;;6.65;3.03;;;10.70;99.90;;;;;;5058961;28;20176;-89
2023/04/15 08:55:08;;;;;;;7.18;2.53;;;10.20;99.90;;;;;;5040126;28;20183;-88
2023/04/15 08:57:35;;;;;;;6.13;2.53;;;10.30;99.90;;;;;;5056866;28;20699;-90
2023/04/15 09:00:02;;;;;;;3.10;2.50;;;10.40;99.90;;;;;;5075224;28;20258;-89
2023/04/15 09:02:28;;;;;;;4.65;1.60;;;10.50;99.90;;;;;;5074992;28;20186;-89
2023/04/15 09:04:55;;;;;;;1.55;1.40;;;10.50;99.90;;;;;;5063755;28;20183;-94
2023/04/15 09:07:21;;;;;;;6.22;2.08;;;10.50;99.90;;;;;;5057598;28;20712;-88
2023/04/15 09:09:48;;;;;;;1.63;1.50;;;10.30;99.90;;;;;;5078800;28;20203;-93
2023/04/15 09:12:16;;;;;;;3.42;1.90;;;10.30;99.90;;;;;;5083755;28;20175;-90
2023/04/15 09:14:46;;;;;;;3.35;2.28;;;8.80;99.90;;;;;;5045540;28;20195;-86
2023/04/15 09:17:12;;;;;;;4.15;2.63;;;10.30;99.90;;;;;;5046126;28;20203;-85
2023/04/15 09:19:41;;;;;;;3.83;2.30;;;10.30;99.90;;;;;;5061608;28;20827;-91
2023/04/15 09:22:06;;;;;;;3.95;2.40;;;10.40;99.90;;;;;;5065361;28;20697;-93
2023/04/15 09:24:41;;;;;;;4.65;2.13;;;10.90;99.90;;;;;;5083256;28;20258;-90
2023/04/15 09:27:09;;;;;;;2.47;1.40;;;10.80;99.90;;;;;;5064628;28;20266;-90
2023/04/15 09:29:41;;;;;;;2.33;1.88;;;10.70;99.90;;;;;;5062752;28;20223;-91
2023/04/15 09:32:14;;;;;;;2.05;1.70;;;10.50;99.90;;;;;;5061513;28;20301;-90
2023/04/15 09:34:40;;;;;;;6.05;1.98;;;10.50;99.90;;;;;;5060409;28;20171;-88
2023/04/15 09:37:08;;;;;;;7.95;3.95;;;;;;;;;;5061361;28;20258;-90
2023/04/15 09:39:50;;;;;;;4.57;2.30;;;10.40;99.90;;;;;;5061229;28;20233;-91
2023/04/15 09:42:23;;;;;;;6.10;2.53;;;10.60;99.90;;;;;;5063839;28;20175;-93
2023/04/15 09:44:50;;;;;;;2.80;1.75;;;10.40;99.90;;;;;;5063179;28;20194;-91
2023/04/15 09:47:34;;;;;;;3.45;2.40;;;10.70;99.90;;;;;;5066594;28;20199;-90
2023/04/15 09:50:08;;;;;;;1.83;1.52;;;10.60;99.90;;;;;;5091531;28;20167;-90
2023/04/15 09:52:56;;;;;;;2.63;1.60;;;11.00;99.90;;;;;;5080835;28;20163;-93
2023/04/15 09:55:22;;;;;;;13.95;6.70;;;10.80;99.90;;;;;;5064194;28;20189;-90
2023/04/15 09:57:51;;;;;;;4.93;2.42;;;10.60;99.90;;;;;;5080096;28;20183;-90
2023/04/15 10:00:20;;;;;;;3.38;2.05;;;10.60;99.90;;;;;;5064361;28;20691;-89
2023/04/15 10:02:47;;;;;;;7.40;3.75;;;11.10;99.90;;;;;;5059542;28;20171;-90
2023/04/15 10:05:16;;;;;;;10.32;4.78;;;10.70;99.90;;;;;;5061102;28;20198;-90
2023/04/15 10:08:01;;;;;;;18.60;6.80;;;10.80;99.90;;;;;;5065970;28;20215;-90
2023/04/15 10:10:29;;;;;;;7.85;3.40;;;11.40;99.90;;;;;;5044634;28;20223;-92
2023/04/15 10:12:56;;;;;;;10.43;5.32;;;11.80;99.90;;;;;;5048594;28;20175;-91
2023/04/15 10:15:23;;;;;;;7.32;3.28;;;11.70;99.90;;;;;;5064406;28;20179;-91
2023/04/15 10:17:52;;;;;;;10.43;4.40;;;12.90;99.90;;;;;;5058902;28;20567;-90
2023/04/15 10:20:20;;;;;;;11.95;5.05;;;12.10;99.90;;;;;;5078817;28;20269;-91
2023/04/15 10:23:01;;;;;;;8.52;2.65;;;12.50;99.90;;;;;;5057452;28;20207;-91
2023/04/15 10:25:28;;;;;;;6.10;3.38;;;12.30;99.90;;;;;;5062718;28;20178;-91
2023/04/15 10:27:55;;;;;;;3.33;2.17;;;12.50;99.90;;;;;;5042234;28;20211;-90
2023/04/15 10:30:24;;;;;;;3.63;2.15;;;12.70;99.90;;;;;;5059786;28;20175;-89
2023/04/15 10:32:51;;;;;;;15.23;4.05;;;12.70;99.90;;;;;;5062195;28;20187;-84
2023/04/15 10:35:17;;;;;;;5.45;2.63;;;12.50;99.90;;;;;;5057979;28;20629;-89
2023/04/15 10:37:43;;;;;;;6.57;3.42;;;12.60;99.90;;;;;;5055549;28;20183;-84
2023/04/15 10:40:26;;;;;;;6.13;3.28;;;12.80;99.90;;;;;;5074612;28;20229;-84
2023/04/15 10:42:56;;;;;;;5.30;2.10;;;13.00;99.90;;;;;;5074930;28;20175;-86
2023/04/15 10:45:36;;;;;;;3.88;1.63;;;10.80;99.90;;;;;;5040874;28;20175;-88
2023/04/15 10:48:03;;;;;;;4.45;2.25;;;13.70;99.90;;;;;;5040293;28;20252;-91
2023/04/15 10:50:35;;;;;;;7.00;3.83;;;13.30;99.90;;;;;;5060840;28;20275;-89
2023/04/15 10:53:04;;;;;;;7.38;3.05;;;12.90;99.90;;;;;;5062156;28;20179;-90
2023/04/15 10:55:34;;;;;;;6.60;2.40;;;13.80;99.90;;;;;;5043474;28;20289;-90
2023/04/15 10:58:04;;;;;;;4.50;2.10;;;14.00;99.90;;;;;;5061375;28;20214;-89
2023/04/15 11:00:32;;;;;;;2.00;1.55;;;12.30;99.90;;;;;;5059559;28;20167;-90
2023/04/15 11:03:13;;;;;;;1.52;1.20;;;12.10;99.90;;;;;;5059095;28;20179;-88
2023/04/15 11:05:42;;;;;;;1.55;1.17;;;13.30;99.90;;;;;;5056589;28;20826;-86
2023/04/15 11:08:10;;;;;;;7.13;1.10;;;13.20;99.90;;;;;;5074372;28;20191;-92
2023/04/15 11:10:36;;;;;;;1.85;1.13;;;13.30;99.90;;;;;;5056148;28;20175;-89
2023/04/15 11:13:04;;;;;;;2.63;1.30;;;13.30;99.90;;;;;;5053419;28;20175;-89
2023/04/15 11:15:33;;;;;;;3.13;1.67;;;12.90;99.90;;;;;;5055512;28;20174;-90
2023/04/15 11:18:08;;;;;;;4.40;1.60;;;13.60;99.90;;;;;;5056906;28;20182;-88
2023/04/15 11:20:34;;;;;;;2.20;1.10;;;13.70;99.90;;;;;;5074636;28;20229;-88
2023/04/15 11:23:00;;;;;;;5.30;1.80;;;13.90;99.90;;;;;;5056466;28;20167;-89
2023/04/15 11:25:28;;;;;;;7.72;2.55;;;14.10;99.90;;;;;;5057825;28;20266;-89
2023/04/15 11:27:55;;;;;;;0.98;0.80;;;13.50;99.90;;;;;;5038677;28;20210;-89
2023/04/15 11:30:22;;;;;;;0.82;0.68;;;13.60;99.90;;;;;;5089609;28;20186;-88
2023/04/15 11:32:52;;;;;;;2.45;1.48;;;13.40;99.90;;;;;;5075073;28;20175;-88
2023/04/15 11:35:18;;;;;;;3.35;1.23;;;13.30;99.90;;;;;;5089895;28;20175;-91
2023/04/15 11:37:45;;;;;;;2.92;1.50;;;13.20;99.90;;;;;;5056945;28;20674;-89
2023/04/15 11:40:12;;;;;;;2.95;1.50;;;13.20;99.90;;;;;;5058932;28;20171;-90
2023/04/15 11:42:40;;;;;;;3.65;1.95;;;13.50;99.90;;;;;;5062540;28;20179;-89
2023/04/15 11:45:14;;;;;;;6.65;2.90;;;13.50;99.90;;;;;;5071917;28;20191;-88
2023/04/15 11:47:43;;;;;;;1.83;1.27;;;13.50;99.90;;;;;;5071817;28;20696;-87
2023/04/15 11:50:19;;;;;;;2.47;1.10;;;12.70;99.90;;;;;;5061669;28;20225;-85
2023/04/15 11:52:57;;;;;;;2.80;1.40;;;13.50;99.90;;;;;;5055702;28;20174;-85
2023/04/15 11:55:24;;;;;;;4.10;1.65;;;13.30;99.90;;;;;;5075130;28;20163;-87
2023/04/15 11:58:08;;;;;;;2.33;2.03;;;13.30;99.90;;;;;;5058301;28;20183;-89
2023/04/15 12:00:35;;;;;;;6.30;2.17;;;16.30;99.90;;;;;;5061705;28;20181;-90
2023/04/15 12:03:29;;;;;;;2.78;1.20;;;14.60;99.90;;;;;;5056952;28;20174;-89
2023/04/15 12:06:12;;;;;;;2.08;1.08;;;13.40;99.90;;;;;;5079241;28;20187;-89
2023/04/15 12:09:09;;;;;;;2.35;1.42;;;14.60;99.90;;;;;;5079479;28;20232;-90
2023/04/15 12:11:38;;;;;;;2.45;1.13;;;13.50;99.90;;;;;;5055448;28;20249;-88
2023/04/15 12:14:12;;;;;;;10.60;2.55;;;13.40;99.90;;;;;;5068969;28;20201;-88
2023/04/15 12:16:46;;;;;;;1.73;1.38;;;13.10;99.90;;;;;;5074319;28;20167;-88
2023/04/15 12:19:24;;;;;;;4.45;1.60;;;13.90;99.90;;;;;;5097758;28;20165;-88
2023/04/15 12:21:51;;;;;;;3.53;1.50;;;14.00;99.90;;;;;;5098023;28;20174;-88
2023/04/15 12:27:39;;;;;;;4.07;2.30;;;14.00;99.90;;;;;;5659519;22;20246;-87
2023/04/15 12:30:06;;;;;;;2.88;1.58;;;14.40;99.90;;;;;;5025293;28;20212;-86
2023/04/15 12:32:35;;;;;;;6.70;2.10;;;14.40;99.90;;;;;;5043918;28;20169;-87
2023/04/15 12:35:04;;;;;;;5.18;2.33;;;14.60;99.90;;;;;;5023285;28;20173;-87
2023/04/15 12:37:30;;;;;;;1.98;1.63;;;14.70;99.90;;;;;;5024438;28;20208;-88
2023/04/15 12:39:59;;;;;;;2.92;1.70;;;15.10;99.90;;;;;;5016407;28;20192;-88
2023/04/15 12:42:24;;;;;;;3.72;1.75;;;14.90;99.90;;;;;;5015621;28;20172;-87
2023/04/15 12:44:53;;;;;;;3.67;1.85;;;14.90;99.90;;;;;;5000622;28;20546;-86
2023/04/15 12:47:19;;;;;;;5.32;2.85;;;14.00;99.90;;;;;;5019467;28;20191;-86
2023/04/15 12:49:45;;;;;;;2.53;1.33;;;;;;;;;;5018617;28;20643;-87
2023/04/15 12:52:12;;;;;;;4.50;1.77;;;16.00;99.90;;;;;;5036939;28;20176;-87
2023/04/15 12:54:38;;;;;;;1.85;1.30;;;13.70;99.90;;;;;;5002581;28;20279;-87
2023/04/15 12:57:04;;;;;;;2.00;1.20;;;16.20;99.90;;;;;;5018676;28;20183;-87
2023/04/15 12:59:30;;;;;;;2.08;1.13;;;16.60;99.90;;;;;;5018826;28;20184;-87
2023/04/15 13:01:56;;;;;;;1.65;1.50;;;;;;;;;;5018316;28;20183;-87
2023/04/15 13:04:22;;;;;;;1.35;0.98;;;16.90;99.90;;;;;;5035883;28;20606;-86
2023/04/15 13:06:48;;;;;;;1.30;0.98;;;17.10;99.90;;;;;;5018290;28;20263;-86
2023/04/15 13:09:14;;;;;;;3.60;1.70;;;;;;;;;;5018780;28;20228;-86
2023/04/15 13:11:42;;;;;;;2.20;1.38;;;17.40;99.90;;;;;;5035160;28;20233;-86
2023/04/15 13:14:10;;;;;;;2.30;1.35;;;17.70;99.90;;;;;;5021234;28;20237;-87
2023/04/15 13:16:36;;;;;;;2.10;1.00;;;16.80;99.90;;;;;;5023136;28;20168;-87